Terminal Aerodrome Forecast
Issued by NWS

Home | Current Version | Previous Version | Text Only | Print | Product List | Glossary On
Versions: 1 2 3 4 5 6 7 8 9 10 11 12 13
000
FTUS45 KABQ 270500
TAFROW
TAF
KROW 270520Z 2706/2806 20006KT P6SM FEW250
     FM271300 36006KT P6SM SKC
     FM272100 15006KT P6SM SKC
     FM280200 24005KT P6SM SKC=

USA.gov is the U.S. government's official web portal to all federal, state and local government web resources and services.